createdAt,value
2022-09-30T00:01:45.040Z,6.42
2022-09-30T00:04:17.708Z,6.39
2022-09-30T00:06:46.570Z,6.38
2022-09-30T00:09:16.388Z,6.37
2022-09-30T00:11:46.422Z,6.33
2022-09-30T00:14:18.452Z,6.31
2022-09-30T00:16:47.477Z,6.29
2022-09-30T00:19:17.745Z,6.26
2022-09-30T00:21:46.335Z,6.25
2022-09-30T00:24:15.010Z,6.23
2022-09-30T00:26:43.576Z,6.23
2022-09-30T00:29:12.531Z,6.20
2022-09-30T00:31:41.272Z,6.20
2022-09-30T00:34:11.595Z,6.19
2022-09-30T00:36:44.656Z,6.20
2022-09-30T00:39:16.287Z,6.20
2022-09-30T00:41:45.738Z,6.20
2022-09-30T00:44:50.907Z,6.17
2022-09-30T00:47:46.821Z,6.16
2022-09-30T00:50:21.519Z,6.15
2022-09-30T00:52:56.867Z,6.15
2022-09-30T00:55:32.629Z,6.13
2022-09-30T00:58:03.122Z,6.13
2022-09-30T01:00:32.022Z,6.12
2022-09-30T01:03:02.322Z,6.12
2022-09-30T01:05:33.566Z,6.11
2022-09-30T01:08:06.656Z,6.10
2022-09-30T01:10:35.187Z,6.08
2022-09-30T01:13:03.997Z,6.07
2022-09-30T01:15:45.122Z,6.07
2022-09-30T01:18:26.134Z,6.08
2022-09-30T01:21:14.047Z,6.07
2022-09-30T01:24:13.373Z,6.03
2022-09-30T01:27:16.735Z,5.99
2022-09-30T01:30:07.512Z,5.98
2022-09-30T01:32:54.430Z,5.96
2022-09-30T01:35:30.852Z,5.94
2022-09-30T01:38:08.540Z,5.92
2022-09-30T01:40:47.159Z,5.90
2022-09-30T01:43:26.567Z,5.88
2022-09-30T01:46:00.219Z,5.91
2022-09-30T01:48:37.482Z,5.91
2022-09-30T01:51:11.243Z,5.88
2022-09-30T01:53:47.160Z,5.83
2022-09-30T01:56:20.204Z,5.83
2022-09-30T01:58:55.430Z,5.82
2022-09-30T02:01:31.766Z,5.80
2022-09-30T02:04:06.913Z,5.80
2022-09-30T02:06:40.316Z,5.78
2022-09-30T02:09:15.111Z,5.79
2022-09-30T02:11:44.225Z,5.78
2022-09-30T02:14:19.431Z,5.76
2022-09-30T02:16:56.614Z,5.72
2022-09-30T02:19:35.174Z,5.70
2022-09-30T02:22:09.231Z,5.68
2022-09-30T02:24:38.990Z,5.63
2022-09-30T02:27:12.385Z,5.62
2022-09-30T02:29:46.763Z,5.60
2022-09-30T02:32:18.546Z,5.58
2022-09-30T02:34:53.707Z,5.57
2022-09-30T02:37:26.338Z,5.57
2022-09-30T02:40:01.692Z,5.56
2022-09-30T02:42:32.797Z,5.54
2022-09-30T02:45:04.015Z,5.53
2022-09-30T02:47:41.480Z,5.55
2022-09-30T02:50:18.737Z,5.57
2022-09-30T02:52:57.375Z,5.57
2022-09-30T02:55:32.515Z,5.56
2022-09-30T02:58:09.709Z,5.57
2022-09-30T03:00:38.652Z,5.57
2022-09-30T03:03:12.631Z,5.54
2022-09-30T03:05:42.676Z,5.55
2022-09-30T03:08:12.300Z,5.55
2022-09-30T03:10:41.377Z,5.53
2022-09-30T03:13:31.121Z,5.53
2022-09-30T03:16:15.634Z,5.52
2022-09-30T03:18:59.123Z,5.48
2022-09-30T03:21:43.082Z,5.45
2022-09-30T03:24:37.282Z,5.41
2022-09-30T03:27:16.091Z,5.37
2022-09-30T03:29:53.764Z,5.35
2022-09-30T03:32:39.145Z,5.34
2022-09-30T03:35:17.809Z,5.33
2022-09-30T03:37:57.153Z,5.32
2022-09-30T03:40:31.766Z,5.28
2022-09-30T03:43:06.836Z,5.26
2022-09-30T03:45:40.543Z,5.25
2022-09-30T03:48:12.745Z,5.26
2022-09-30T03:50:43.247Z,5.24
2022-09-30T03:53:14.237Z,5.19
2022-09-30T03:55:49.071Z,5.17
2022-09-30T03:58:19.065Z,5.16
2022-09-30T04:00:50.715Z,5.15
2022-09-30T04:03:20.757Z,5.14
2022-09-30T04:05:50.056Z,5.13
2022-09-30T04:08:20.106Z,5.15
2022-09-30T04:10:48.610Z,5.16
2022-09-30T04:13:17.155Z,5.17
2022-09-30T04:15:45.669Z,5.16
2022-09-30T04:18:14.204Z,5.16
2022-09-30T04:20:42.688Z,5.15
2022-09-30T04:23:11.175Z,5.17
2022-09-30T04:25:41.064Z,5.17
2022-09-30T04:28:09.846Z,5.19
2022-09-30T04:30:39.186Z,5.19
2022-09-30T04:33:07.716Z,5.17
2022-09-30T04:35:39.210Z,5.16
2022-09-30T04:38:07.743Z,5.12
2022-09-30T04:40:38.304Z,5.09
2022-09-30T04:43:08.221Z,5.05
2022-09-30T04:45:36.755Z,5.05
2022-09-30T04:48:05.367Z,5.03
2022-09-30T04:50:34.193Z,5.01
2022-09-30T04:53:03.871Z,4.99
2022-09-30T04:55:32.471Z,4.99
2022-09-30T04:58:01.219Z,4.97
2022-09-30T05:00:31.351Z,4.98
2022-09-30T05:03:00.090Z,5.00
2022-09-30T05:05:28.676Z,5.00
2022-09-30T05:08:01.603Z,5.01
2022-09-30T05:10:30.476Z,5.01
2022-09-30T05:12:59.502Z,5.01
2022-09-30T05:15:30.070Z,5.04
2022-09-30T05:17:58.681Z,5.03
2022-09-30T05:20:27.280Z,5.03
2022-09-30T05:22:57.216Z,5.01
2022-09-30T05:25:25.749Z,4.99
2022-09-30T05:27:54.302Z,4.96
2022-09-30T05:30:22.796Z,5.00
2022-09-30T05:32:52.687Z,5.04
2022-09-30T05:35:21.356Z,5.07
2022-09-30T05:37:49.848Z,5.09
2022-09-30T05:40:18.656Z,5.13
2022-09-30T05:42:47.447Z,5.14
2022-09-30T05:45:16.184Z,5.14
2022-09-30T05:47:44.718Z,5.15
2022-09-30T05:50:14.588Z,5.17
2022-09-30T05:52:43.136Z,5.21
2022-09-30T05:55:11.679Z,5.23
2022-09-30T05:57:40.456Z,5.30
2022-09-30T06:00:09.905Z,5.32
2022-09-30T06:02:38.669Z,5.36
2022-09-30T06:05:08.048Z,5.41
2022-09-30T06:07:39.031Z,5.45
2022-09-30T06:10:12.242Z,5.47
2022-09-30T06:12:41.034Z,5.52
2022-09-30T06:15:10.832Z,5.54
2022-09-30T06:17:39.338Z,5.56
2022-09-30T06:20:08.972Z,5.58
2022-09-30T06:22:38.937Z,5.62
2022-09-30T06:25:08.570Z,5.67
2022-09-30T06:27:38.331Z,5.72
2022-09-30T06:30:08.262Z,5.75
2022-09-30T06:32:36.771Z,5.79
2022-09-30T06:35:05.693Z,5.81
2022-09-30T06:37:36.891Z,5.85
2022-09-30T06:40:08.740Z,5.87
2022-09-30T06:42:37.255Z,5.91
2022-09-30T06:45:06.725Z,5.95
2022-09-30T06:47:35.312Z,5.99
2022-09-30T06:50:03.893Z,6.04
2022-09-30T06:52:32.560Z,6.08
2022-09-30T06:55:01.067Z,6.12
2022-09-30T06:57:31.144Z,6.17
2022-09-30T06:59:59.659Z,6.21
2022-09-30T07:02:29.137Z,6.26
2022-09-30T07:04:57.704Z,6.32
2022-09-30T07:07:26.256Z,6.37
2022-09-30T07:09:59.453Z,6.43
2022-09-30T07:12:28.973Z,6.48
2022-09-30T07:15:00.187Z,6.52
2022-09-30T07:17:29.354Z,6.57
2022-09-30T07:19:58.750Z,6.63
2022-09-30T07:22:32.314Z,6.72
2022-09-30T07:25:03.058Z,6.81
2022-09-30T07:27:34.084Z,6.89
2022-09-30T07:30:09.740Z,6.98
2022-09-30T07:32:41.336Z,7.05
2022-09-30T07:35:10.211Z,7.15
2022-09-30T07:37:38.811Z,7.22
2022-09-30T07:40:09.496Z,7.26
2022-09-30T07:42:43.354Z,7.37
2022-09-30T07:45:16.033Z,7.43
2022-09-30T07:47:45.971Z,7.51
2022-09-30T07:50:17.238Z,7.58
2022-09-30T07:52:45.882Z,7.67
2022-09-30T07:55:14.417Z,7.70
2022-09-30T07:57:42.972Z,7.86
2022-09-30T08:00:40.631Z,7.95
2022-09-30T08:03:02.963Z,8.09
2022-09-30T08:05:31.564Z,8.18
2022-09-30T08:08:00.504Z,8.26
2022-09-30T08:10:29.024Z,8.34
2022-09-30T08:12:59.928Z,8.45
2022-09-30T08:15:30.953Z,8.54
2022-09-30T08:17:59.579Z,8.65
2022-09-30T08:20:28.860Z,8.73
2022-09-30T08:22:58.204Z,8.87
2022-09-30T08:25:27.715Z,8.98
2022-09-30T08:27:56.246Z,9.09
2022-09-30T08:30:24.802Z,9.20
2022-09-30T08:32:54.685Z,9.28
2022-09-30T08:35:23.225Z,9.40
2022-09-30T08:37:52.217Z,9.51
2022-09-30T08:40:24.670Z,9.58
2022-09-30T08:43:05.017Z,9.70
2022-09-30T08:45:44.885Z,9.81
2022-09-30T08:48:30.841Z,9.93
2022-09-30T08:51:09.064Z,10.06
2022-09-30T08:53:41.232Z,10.15
2022-09-30T08:56:14.115Z,10.25
2022-09-30T08:58:45.425Z,10.40
2022-09-30T09:01:21.048Z,10.53
2022-09-30T09:03:51.219Z,10.66
2022-09-30T09:06:27.344Z,10.79
2022-09-30T09:09:21.716Z,10.91
2022-09-30T09:12:03.178Z,11.06
2022-09-30T09:14:44.687Z,11.17
2022-09-30T09:17:26.608Z,11.29
2022-09-30T09:20:04.636Z,11.42
2022-09-30T09:22:34.499Z,11.54
2022-09-30T09:25:03.899Z,11.63
2022-09-30T09:27:43.103Z,11.76
2022-09-30T09:30:14.827Z,11.88
2022-09-30T09:32:43.667Z,11.93
2022-09-30T09:35:18.867Z,12.02
2022-09-30T09:38:14.461Z,12.15
2022-09-30T09:40:57.529Z,12.27
2022-09-30T09:43:36.600Z,12.36
2022-09-30T09:46:13.616Z,12.46
2022-09-30T09:48:42.729Z,12.51
2022-09-30T09:51:20.435Z,12.63
2022-09-30T09:53:50.672Z,12.70
2022-09-30T09:56:21.194Z,12.77
2022-09-30T09:59:10.252Z,12.86
2022-09-30T10:01:41.168Z,12.93
2022-09-30T10:04:21.992Z,13.04
2022-09-30T10:06:54.897Z,13.13
2022-09-30T10:09:32.325Z,13.24
2022-09-30T10:12:34.032Z,13.43
2022-09-30T10:15:05.886Z,13.68
2022-09-30T10:17:36.865Z,14.09
2022-09-30T10:20:09.348Z,14.67
2022-09-30T10:22:39.283Z,15.32
2022-09-30T10:25:24.264Z,15.83
2022-09-30T10:27:56.930Z,16.29
2022-09-30T10:30:34.763Z,16.79
2022-09-30T10:33:04.720Z,17.22
2022-09-30T10:35:33.311Z,17.33
2022-09-30T10:38:03.240Z,17.70
2022-09-30T10:40:31.962Z,18.30
2022-09-30T10:43:00.592Z,18.41
2022-09-30T10:45:36.884Z,18.30
2022-09-30T10:48:17.564Z,18.24
2022-09-30T10:50:52.415Z,18.05
2022-09-30T10:53:25.383Z,17.61
2022-09-30T10:55:56.231Z,17.35
2022-09-30T10:58:31.488Z,17.12
2022-09-30T11:01:08.696Z,16.88
2022-09-30T11:03:46.954Z,16.78
2022-09-30T11:06:16.357Z,16.73
2022-09-30T11:08:53.766Z,16.56
2022-09-30T11:11:27.263Z,16.76
2022-09-30T11:13:58.595Z,16.88
2022-09-30T11:16:34.318Z,17.25
2022-09-30T11:19:09.906Z,17.49
2022-09-30T11:21:43.343Z,17.96
2022-09-30T11:24:27.169Z,18.35
2022-09-30T11:27:06.543Z,18.39
2022-09-30T11:29:50.523Z,18.53
2022-09-30T11:32:32.072Z,18.53
2022-09-30T11:35:14.635Z,18.74
2022-09-30T11:38:03.504Z,18.95
2022-09-30T11:40:39.839Z,19.23
2022-09-30T11:43:19.564Z,19.27
2022-09-30T11:46:05.338Z,19.45
2022-09-30T11:48:46.387Z,19.26
2022-09-30T11:51:25.218Z,19.39
2022-09-30T11:54:05.857Z,19.42
2022-09-30T11:56:49.592Z,19.51
2022-09-30T11:59:25.101Z,19.94
2022-09-30T12:01:56.779Z,19.99
2022-09-30T12:04:31.604Z,20.18
2022-09-30T12:07:05.469Z,19.88
2022-09-30T12:09:38.458Z,19.95
2022-09-30T12:12:16.296Z,20.03
2022-09-30T12:14:48.372Z,20.45
2022-09-30T12:17:27.097Z,20.30
2022-09-30T12:19:59.365Z,19.90
2022-09-30T12:22:31.828Z,20.06
2022-09-30T12:25:03.745Z,20.04
2022-09-30T12:27:40.971Z,20.06
2022-09-30T12:30:17.768Z,20.20
2022-09-30T12:33:33.202Z,20.43
2022-09-30T12:36:28.688Z,19.75
2022-09-30T12:39:32.929Z,19.56
2022-09-30T12:42:17.298Z,19.71
2022-09-30T12:45:05.776Z,18.95
2022-09-30T12:47:39.029Z,19.13
2022-09-30T12:50:10.655Z,19.31
2022-09-30T12:52:39.519Z,19.77
2022-09-30T12:55:14.040Z,20.02
2022-09-30T12:57:44.583Z,20.28
2022-09-30T13:00:20.969Z,20.55
2022-09-30T13:02:55.544Z,20.53
2022-09-30T13:05:49.943Z,20.89
2022-09-30T13:08:43.216Z,20.80
2022-09-30T13:11:42.020Z,20.49
2022-09-30T13:14:26.524Z,19.97
2022-09-30T13:17:29.565Z,19.82
2022-09-30T13:19:58.721Z,19.51
2022-09-30T13:22:59.958Z,19.01
2022-09-30T13:25:28.623Z,18.58
2022-09-30T13:28:28.735Z,18.05
2022-09-30T13:31:15.783Z,17.76
2022-09-30T13:33:48.728Z,17.45
2022-09-30T13:36:30.086Z,17.44
2022-09-30T13:39:20.204Z,17.49
2022-09-30T13:41:59.781Z,17.31
2022-09-30T13:44:36.469Z,17.30
2022-09-30T13:47:15.905Z,17.13
2022-09-30T13:49:52.804Z,16.98
2022-09-30T13:52:26.196Z,16.84
2022-09-30T13:54:59.770Z,16.77
2022-09-30T13:57:37.319Z,16.86
2022-09-30T14:00:09.792Z,16.83
2022-09-30T14:03:14.347Z,16.92
2022-09-30T14:05:57.248Z,16.94
2022-09-30T14:08:50.469Z,16.91
2022-09-30T14:11:40.017Z,16.98
2022-09-30T14:14:27.969Z,17.04
2022-09-30T14:17:15.517Z,17.01
2022-09-30T14:20:06.555Z,17.05
2022-09-30T14:22:38.123Z,16.90
2022-09-30T14:25:15.662Z,16.85
2022-09-30T14:27:59.749Z,16.98
2022-09-30T14:30:29.207Z,16.98
2022-09-30T14:33:03.479Z,17.09
2022-09-30T14:38:22.886Z,17.05
2022-09-30T14:40:53.728Z,17.10
2022-09-30T14:43:25.779Z,17.10
2022-09-30T14:45:57.971Z,17.05
2022-09-30T14:48:30.060Z,17.08
2022-09-30T14:51:02.333Z,16.98
2022-09-30T14:53:34.610Z,16.96
2022-09-30T14:56:05.890Z,16.89
2022-09-30T14:58:42.611Z,16.83
2022-09-30T15:01:17.578Z,16.79
2022-09-30T15:03:49.616Z,16.76
2022-09-30T15:06:20.763Z,16.70
2022-09-30T15:08:52.584Z,16.57
2022-09-30T15:11:26.092Z,16.48
2022-09-30T15:14:00.659Z,16.36
2022-09-30T15:16:31.974Z,16.33
2022-09-30T15:19:01.750Z,16.29
2022-09-30T15:21:33.534Z,16.30
2022-09-30T15:24:04.118Z,16.24
2022-09-30T15:26:34.477Z,16.19
2022-09-30T15:29:05.562Z,16.19
2022-09-30T15:31:34.504Z,16.18
2022-09-30T15:34:08.410Z,16.19
2022-09-30T15:36:39.030Z,16.17
2022-09-30T15:39:22.741Z,16.23
2022-09-30T15:41:53.628Z,16.25
2022-09-30T15:44:38.744Z,16.22
2022-09-30T15:47:09.563Z,16.15
2022-09-30T15:49:49.759Z,16.08
2022-09-30T15:52:28.143Z,15.94
2022-09-30T15:54:59.368Z,15.84
2022-09-30T15:57:46.890Z,15.76
2022-09-30T16:00:37.890Z,15.64
2022-09-30T16:03:25.186Z,15.54
2022-09-30T16:05:54.284Z,15.47
2022-09-30T16:08:28.238Z,15.42
2022-09-30T16:10:59.671Z,15.34
2022-09-30T16:13:31.601Z,15.26
2022-09-30T16:16:02.108Z,15.18
2022-09-30T16:18:34.179Z,15.12
2022-09-30T16:21:06.744Z,15.03
2022-09-30T16:23:38.054Z,14.95
2022-09-30T16:26:20.925Z,14.86
2022-09-30T16:28:49.496Z,14.77
2022-09-30T16:31:19.115Z,14.68
2022-09-30T16:33:47.829Z,14.62
2022-09-30T16:36:16.681Z,14.56
2022-09-30T16:38:45.288Z,14.48
2022-09-30T16:41:15.311Z,14.42
2022-09-30T16:43:45.216Z,14.34
2022-09-30T16:46:14.078Z,14.32
2022-09-30T16:48:42.816Z,14.28
2022-09-30T16:51:15.427Z,14.21
2022-09-30T16:53:44.531Z,14.16
2022-09-30T16:56:19.354Z,14.09
2022-09-30T16:58:48.499Z,14.04
2022-09-30T17:01:20.596Z,13.98
2022-09-30T17:03:50.072Z,13.90
2022-09-30T17:06:20.379Z,13.83
2022-09-30T17:08:50.334Z,13.76
2022-09-30T17:11:20.438Z,13.71
2022-09-30T17:13:49.501Z,13.62
2022-09-30T17:16:18.160Z,13.53
2022-09-30T17:18:46.768Z,13.47
2022-09-30T17:21:19.039Z,13.37
2022-09-30T17:23:47.773Z,13.29
2022-09-30T17:26:16.474Z,13.21
2022-09-30T17:28:46.866Z,13.14
2022-09-30T17:31:15.960Z,13.03
2022-09-30T17:33:44.681Z,13.00
2022-09-30T17:36:15.148Z,12.90
2022-09-30T17:38:43.841Z,12.84
2022-09-30T17:41:33.009Z,12.76
2022-09-30T17:44:03.304Z,12.68
2022-09-30T17:46:42.115Z,12.62
2022-09-30T17:49:11.226Z,12.56
2022-09-30T17:51:40.245Z,12.51
2022-09-30T17:54:08.949Z,12.46
2022-09-30T17:56:37.872Z,12.42
2022-09-30T17:59:09.753Z,12.39
2022-09-30T18:01:40.895Z,12.36
2022-09-30T18:04:09.706Z,12.35
2022-09-30T18:06:38.248Z,12.35
2022-09-30T18:09:07.021Z,12.34
2022-09-30T18:11:42.118Z,12.34
2022-09-30T18:14:14.013Z,12.33
2022-09-30T18:16:43.057Z,12.32
2022-09-30T18:19:11.774Z,12.29
2022-09-30T18:21:40.296Z,12.24
2022-09-30T18:24:09.190Z,12.20
2022-09-30T18:26:37.735Z,12.16
2022-09-30T18:29:06.393Z,12.13
2022-09-30T18:31:37.818Z,12.08
2022-09-30T18:34:07.934Z,12.00
2022-09-30T18:36:37.303Z,11.94
2022-09-30T18:39:06.125Z,11.90
2022-09-30T18:41:36.142Z,11.83
2022-09-30T18:44:05.329Z,11.77
2022-09-30T18:46:33.900Z,11.71
2022-09-30T18:49:04.068Z,11.64
2022-09-30T18:51:32.901Z,11.60
2022-09-30T18:54:02.388Z,11.57
2022-09-30T18:56:33.016Z,11.53
2022-09-30T18:59:04.121Z,11.49
2022-09-30T19:01:34.106Z,11.42
2022-09-30T19:04:05.317Z,11.37
2022-09-30T19:06:34.849Z,11.32
2022-09-30T19:09:03.706Z,11.28
2022-09-30T19:11:32.623Z,11.23
2022-09-30T19:14:03.149Z,11.14
2022-09-30T19:16:37.959Z,11.08
2022-09-30T19:19:10.641Z,11.03
2022-09-30T19:21:40.464Z,10.96
2022-09-30T19:24:10.513Z,10.89
2022-09-30T19:26:40.435Z,10.85
2022-09-30T19:29:09.714Z,10.81
2022-09-30T19:31:38.605Z,10.77
2022-09-30T19:34:13.592Z,10.74
2022-09-30T19:36:51.757Z,10.72
2022-09-30T19:39:20.940Z,10.70
2022-09-30T19:41:50.116Z,10.69
2022-09-30T19:44:19.313Z,10.67
2022-09-30T19:46:50.331Z,10.65
2022-09-30T19:49:21.665Z,10.64
2022-09-30T19:51:52.612Z,10.61
2022-09-30T19:54:35.586Z,10.58
2022-09-30T19:57:06.801Z,10.54
2022-09-30T19:59:35.353Z,10.48
2022-09-30T20:02:03.930Z,10.44
2022-09-30T20:04:34.339Z,10.40
2022-09-30T20:07:02.830Z,10.36
2022-09-30T20:09:31.959Z,10.29
2022-09-30T20:12:00.551Z,10.26
2022-09-30T20:14:46.447Z,10.23
2022-09-30T20:17:14.954Z,10.19
2022-09-30T20:20:04.953Z,10.18
2022-09-30T20:22:33.605Z,10.15
2022-09-30T20:25:02.831Z,10.15
2022-09-30T20:27:32.968Z,10.19
2022-09-30T20:30:01.748Z,10.24
2022-09-30T20:32:31.210Z,10.31
2022-09-30T20:35:01.684Z,10.36
2022-09-30T20:37:30.205Z,10.37
2022-09-30T20:39:58.939Z,10.38
2022-09-30T20:42:31.051Z,10.39
2022-09-30T20:45:02.838Z,10.42
2022-09-30T20:47:31.665Z,10.42
2022-09-30T20:50:01.955Z,10.43
2022-09-30T20:52:30.560Z,10.39
2022-09-30T20:55:00.580Z,10.36
2022-09-30T20:57:30.163Z,10.31
2022-09-30T21:00:00.310Z,10.25
2022-09-30T21:02:30.036Z,10.13
2022-09-30T21:04:59.562Z,10.07
2022-09-30T21:07:29.448Z,9.96
2022-09-30T21:09:57.951Z,9.85
2022-09-30T21:12:26.589Z,9.77
2022-09-30T21:14:55.227Z,9.70
2022-09-30T21:17:23.809Z,9.62
2022-09-30T21:19:52.327Z,9.52
2022-09-30T21:22:20.891Z,9.48
2022-09-30T21:24:50.852Z,9.41
2022-09-30T21:27:19.393Z,9.37
2022-09-30T21:29:47.921Z,9.33
2022-09-30T21:32:16.619Z,9.27
2022-09-30T21:34:45.191Z,9.23
2022-09-30T21:37:13.798Z,9.18
2022-09-30T21:39:43.502Z,9.14
2022-09-30T21:42:13.401Z,9.09
2022-09-30T21:44:41.881Z,9.05
2022-09-30T21:47:10.528Z,9.01
2022-09-30T21:49:39.190Z,8.97
2022-09-30T21:52:10.500Z,8.88
2022-09-30T21:54:40.444Z,8.85
2022-09-30T21:57:09.603Z,8.80
2022-09-30T21:59:42.417Z,8.77
2022-09-30T22:02:11.448Z,8.75
2022-09-30T22:04:41.493Z,8.71
2022-09-30T22:07:10.006Z,8.69
2022-09-30T22:09:39.667Z,8.64
2022-09-30T22:12:08.922Z,8.60
2022-09-30T22:14:39.032Z,8.59
2022-09-30T22:17:09.296Z,8.58
2022-09-30T22:19:39.039Z,8.57
2022-09-30T22:22:07.615Z,8.57
2022-09-30T22:24:36.942Z,8.62
2022-09-30T22:27:07.185Z,8.66
2022-09-30T22:29:36.378Z,8.70
2022-09-30T22:32:06.355Z,8.75
2022-09-30T22:34:52.680Z,8.79
2022-09-30T22:37:38.922Z,8.86
2022-09-30T22:40:08.121Z,8.92
2022-09-30T22:42:36.703Z,8.97
2022-09-30T22:45:05.959Z,8.99
2022-09-30T22:47:36.124Z,9.03
2022-09-30T22:50:04.736Z,9.04
2022-09-30T22:52:33.254Z,9.06
2022-09-30T22:55:01.802Z,9.07
2022-09-30T22:57:31.029Z,9.07
2022-09-30T22:59:59.826Z,9.06
2022-09-30T23:02:28.476Z,9.07
2022-09-30T23:04:59.017Z,9.09
2022-09-30T23:07:27.537Z,9.09
2022-09-30T23:09:56.357Z,9.09
2022-09-30T23:12:24.838Z,9.09
2022-09-30T23:14:53.886Z,9.07
2022-09-30T23:17:22.423Z,9.04
2022-09-30T23:19:51.064Z,9.03
2022-09-30T23:22:20.979Z,8.96
2022-09-30T23:24:49.496Z,8.88
2022-09-30T23:27:18.068Z,8.80
2022-09-30T23:29:46.572Z,8.71
2022-09-30T23:32:15.269Z,8.64
2022-09-30T23:34:43.809Z,8.54
2022-09-30T23:37:12.290Z,8.44
2022-09-30T23:39:42.175Z,8.37
2022-09-30T23:42:10.640Z,8.27
2022-09-30T23:44:39.263Z,8.20
2022-09-30T23:47:19.902Z,8.12
2022-09-30T23:49:48.895Z,8.07
2022-09-30T23:52:17.935Z,8.04
2022-09-30T23:54:48.000Z,7.98
2022-09-30T23:57:16.575Z,7.96
2022-09-30T23:59:45.040Z,7.93
